sensor_id;sensor_type;location;lat;lon;timestamp;pressure;altitude;pressure_sealevel;temperature;humidity
45941;BME280;31858;46.008;8.978;2023-02-12T00:02:36;95852.03;;;4.73;47.23
45941;BME280;31858;46.008;8.978;2023-02-12T00:12:39;95840.72;;;4.81;46.86
45941;BME280;31858;46.008;8.978;2023-02-12T00:22:40;95838.63;;;4.91;47.66
45941;BME280;31858;46.008;8.978;2023-02-12T00:32:44;95832.47;;;5.05;50.02
45941;BME280;31858;46.008;8.978;2023-02-12T00:42:46;95825.88;;;4.94;49.87
45941;BME280;31858;46.008;8.978;2023-02-12T00:52:48;95823.91;;;4.99;51.81
45941;BME280;31858;46.008;8.978;2023-02-12T01:02:50;95818.28;;;4.92;53.41
45941;BME280;31858;46.008;8.978;2023-02-12T01:12:54;95810.66;;;4.90;55.38
45941;BME280;31858;46.008;8.978;2023-02-12T01:22:55;95815.72;;;4.78;48.06
45941;BME280;31858;46.008;8.978;2023-02-12T01:32:58;95813.94;;;4.96;49.11
45941;BME280;31858;46.008;8.978;2023-02-12T01:43:00;95807.22;;;4.90;49.18
45941;BME280;31858;46.008;8.978;2023-02-12T01:53:04;95795.03;;;5.11;50.50
45941;BME280;31858;46.008;8.978;2023-02-12T02:03:06;95796.09;;;5.02;52.18
45941;BME280;31858;46.008;8.978;2023-02-12T02:13:09;95803.03;;;4.89;53.55
45941;BME280;31858;46.008;8.978;2023-02-12T02:24:03;95777.63;;;4.71;53.94
45941;BME280;31858;46.008;8.978;2023-02-12T02:34:18;95765.81;;;4.68;53.93
45941;BME280;31858;46.008;8.978;2023-02-12T02:44:23;95760.91;;;4.84;50.41
45941;BME280;31858;46.008;8.978;2023-02-12T02:54:32;95755.47;;;4.80;49.88
45941;BME280;31858;46.008;8.978;2023-02-12T03:04:38;95744.16;;;4.88;48.72
45941;BME280;31858;46.008;8.978;2023-02-12T03:14:46;95751.50;;;5.00;49.45
45941;BME280;31858;46.008;8.978;2023-02-12T03:24:55;95746.22;;;5.00;50.14
45941;BME280;31858;46.008;8.978;2023-02-12T03:35:08;95728.81;;;4.99;50.71
45941;BME280;31858;46.008;8.978;2023-02-12T03:45:18;95742.47;;;4.93;54.39
45941;BME280;31858;46.008;8.978;2023-02-12T03:55:24;95749.66;;;5.09;51.20
45941;BME280;31858;46.008;8.978;2023-02-12T04:05:26;95761.13;;;4.96;54.51
45941;BME280;31858;46.008;8.978;2023-02-12T04:15:37;95767.31;;;4.91;52.27
45941;BME280;31858;46.008;8.978;2023-02-12T04:25:52;95763.78;;;5.05;53.22
45941;BME280;31858;46.008;8.978;2023-02-12T04:36:00;95759.47;;;5.26;55.27
45941;BME280;31858;46.008;8.978;2023-02-12T04:46:03;95766.31;;;5.18;51.40
45941;BME280;31858;46.008;8.978;2023-02-12T04:56:10;95762.44;;;5.33;53.99
45941;BME280;31858;46.008;8.978;2023-02-12T05:06:12;95761.38;;;5.43;56.81
45941;BME280;31858;46.008;8.978;2023-02-12T05:16:15;95755.56;;;5.06;58.28
45941;BME280;31858;46.008;8.978;2023-02-12T05:26:19;95740.50;;;5.07;55.97
45941;BME280;31858;46.008;8.978;2023-02-12T05:36:23;95751.53;;;5.09;57.98
45941;BME280;31858;46.008;8.978;2023-02-12T05:46:25;95740.50;;;5.24;58.69
45941;BME280;31858;46.008;8.978;2023-02-12T05:56:29;95741.28;;;5.24;58.63
45941;BME280;31858;46.008;8.978;2023-02-12T06:06:32;95748.06;;;5.00;60.01
45941;BME280;31858;46.008;8.978;2023-02-12T06:16:35;95745.63;;;5.20;59.35
45941;BME280;31858;46.008;8.978;2023-02-12T06:26:37;95758.13;;;5.46;59.11
45941;BME280;31858;46.008;8.978;2023-02-12T06:36:41;95767.56;;;5.30;59.20
45941;BME280;31858;46.008;8.978;2023-02-12T06:46:43;95765.72;;;5.39;60.38
45941;BME280;31858;46.008;8.978;2023-02-12T06:56:46;95780.66;;;5.43;59.06
45941;BME280;31858;46.008;8.978;2023-02-12T07:06:48;95784.97;;;5.31;60.22
45941;BME280;31858;46.008;8.978;2023-02-12T07:16:51;95791.69;;;5.37;58.38
45941;BME280;31858;46.008;8.978;2023-02-12T07:26:52;95803.31;;;5.27;59.57
45941;BME280;31858;46.008;8.978;2023-02-12T07:36:55;95817.78;;;5.30;58.34
45941;BME280;31858;46.008;8.978;2023-02-12T07:46:57;95814.75;;;5.62;56.38
45941;BME280;31858;46.008;8.978;2023-02-12T07:57:00;95814.31;;;5.77;57.16
45941;BME280;31858;46.008;8.978;2023-02-12T08:07:01;95821.94;;;5.70;61.31
45941;BME280;31858;46.008;8.978;2023-02-12T08:17:04;95826.44;;;5.61;63.11
45941;BME280;31858;46.008;8.978;2023-02-12T08:27:07;95819.47;;;5.74;63.57
45941;BME280;31858;46.008;8.978;2023-02-12T08:37:10;95833.28;;;5.62;60.65
45941;BME280;31858;46.008;8.978;2023-02-12T08:47:12;95838.84;;;6.17;62.62
45941;BME280;31858;46.008;8.978;2023-02-12T08:57:15;95844.13;;;6.26;61.95
45941;BME280;31858;46.008;8.978;2023-02-12T09:07:16;95845.69;;;6.27;62.18
45941;BME280;31858;46.008;8.978;2023-02-12T09:17:20;95847.09;;;6.16;66.08
45941;BME280;31858;46.008;8.978;2023-02-12T09:27:26;95849.34;;;6.95;61.30
45941;BME280;31858;46.008;8.978;2023-02-12T09:37:29;95852.47;;;6.80;63.39
45941;BME280;31858;46.008;8.978;2023-02-12T09:47:35;95856.47;;;7.03;62.38
45941;BME280;31858;46.008;8.978;2023-02-12T09:57:43;95868.75;;;7.25;58.81
45941;BME280;31858;46.008;8.978;2023-02-12T10:07:57;95876.84;;;7.67;54.71
45941;BME280;31858;46.008;8.978;2023-02-12T10:18:15;95892.38;;;8.06;53.84
45941;BME280;31858;46.008;8.978;2023-02-12T10:28:24;95882.19;;;8.38;59.13
45941;BME280;31858;46.008;8.978;2023-02-12T10:38:30;95885.19;;;8.57;58.11
45941;BME280;31858;46.008;8.978;2023-02-12T10:48:37;95887.13;;;8.69;58.25
45941;BME280;31858;46.008;8.978;2023-02-12T10:58:50;95897.19;;;8.96;55.65
45941;BME280;31858;46.008;8.978;2023-02-12T11:08:52;95880.59;;;8.99;51.53
45941;BME280;31858;46.008;8.978;2023-02-12T11:19:01;95875.59;;;9.67;50.13
45941;BME280;31858;46.008;8.978;2023-02-12T11:29:17;95879.91;;;9.96;47.79
45941;BME280;31858;46.008;8.978;2023-02-12T11:39:23;95876.47;;;10.20;48.58
45941;BME280;31858;46.008;8.978;2023-02-12T11:49:30;95873.84;;;10.48;46.97
45941;BME280;31858;46.008;8.978;2023-02-12T11:59:35;95860.06;;;11.02;44.44
45941;BME280;31858;46.008;8.978;2023-02-12T12:09:40;95863.13;;;11.32;43.62
45941;BME280;31858;46.008;8.978;2023-02-12T12:19:48;95849.97;;;11.55;43.71
45941;BME280;31858;46.008;8.978;2023-02-12T12:29:57;95853.59;;;11.78;42.75
45941;BME280;31858;46.008;8.978;2023-02-12T12:40:24;95843.56;;;11.91;41.09
45941;BME280;31858;46.008;8.978;2023-02-12T12:50:42;95841.03;;;12.14;42.31
45941;BME280;31858;46.008;8.978;2023-02-12T13:01:03;95837.19;;;12.50;42.98
45941;BME280;31858;46.008;8.978;2023-02-12T13:11:20;95816.44;;;12.62;43.61
45941;BME280;31858;46.008;8.978;2023-02-12T13:21:35;95820.03;;;12.70;41.23
45941;BME280;31858;46.008;8.978;2023-02-12T13:31:44;95815.16;;;12.95;41.25
45941;BME280;31858;46.008;8.978;2023-02-12T13:41:57;95812.91;;;13.20;39.67
45941;BME280;31858;46.008;8.978;2023-02-12T13:52:06;95812.97;;;13.23;38.66
45941;BME280;31858;46.008;8.978;2023-02-12T14:02:43;95821.06;;;13.27;39.29
45941;BME280;31858;46.008;8.978;2023-02-12T14:12:45;95832.13;;;13.25;37.26
45941;BME280;31858;46.008;8.978;2023-02-12T14:23:21;95834.03;;;13.25;36.52
45941;BME280;31858;46.008;8.978;2023-02-12T14:33:25;95834.81;;;13.25;35.82
45941;BME280;31858;46.008;8.978;2023-02-12T14:43:31;95843.19;;;13.47;36.97
45941;BME280;31858;46.008;8.978;2023-02-12T14:53:54;95851.72;;;13.52;34.48
45941;BME280;31858;46.008;8.978;2023-02-12T15:04:02;95853.91;;;13.24;35.00
45941;BME280;31858;46.008;8.978;2023-02-12T15:14:15;95866.63;;;13.30;36.63
45941;BME280;31858;46.008;8.978;2023-02-12T15:24:22;95865.97;;;13.37;35.89
45941;BME280;31858;46.008;8.978;2023-02-12T15:34:27;95886.56;;;13.33;36.25
45941;BME280;31858;46.008;8.978;2023-02-12T15:44:31;95890.09;;;13.18;36.01
45941;BME280;31858;46.008;8.978;2023-02-12T15:54:34;95900.75;;;12.95;36.16
45941;BME280;31858;46.008;8.978;2023-02-12T16:04:37;95915.72;;;12.61;36.97
45941;BME280;31858;46.008;8.978;2023-02-12T16:14:42;95915.31;;;12.24;37.73
45941;BME280;31858;46.008;8.978;2023-02-12T16:24:49;95928.94;;;11.87;38.20
45941;BME280;31858;46.008;8.978;2023-02-12T16:34:59;95947.34;;;11.45;38.78
45941;BME280;31858;46.008;8.978;2023-02-12T16:45:32;95959.13;;;10.88;39.40
45941;BME280;31858;46.008;8.978;2023-02-12T16:55:34;95983.63;;;10.54;38.87
45941;BME280;31858;46.008;8.978;2023-02-12T17:05:38;95991.47;;;10.22;38.78
45941;BME280;31858;46.008;8.978;2023-02-12T17:15:46;96011.28;;;10.00;40.36
45941;BME280;31858;46.008;8.978;2023-02-12T17:25:51;96020.53;;;9.70;40.64
45941;BME280;31858;46.008;8.978;2023-02-12T17:35:53;96038.09;;;9.50;41.20
45941;BME280;31858;46.008;8.978;2023-02-12T17:45:56;96055.25;;;9.40;41.56
45941;BME280;31858;46.008;8.978;2023-02-12T17:55:59;96068.09;;;9.38;41.60
45941;BME280;31858;46.008;8.978;2023-02-12T18:06:03;96074.59;;;9.08;42.62
45941;BME280;31858;46.008;8.978;2023-02-12T18:16:06;96093.53;;;9.06;41.06
45941;BME280;31858;46.008;8.978;2023-02-12T18:26:13;96094.66;;;8.76;41.14
45941;BME280;31858;46.008;8.978;2023-02-12T18:36:17;96104.28;;;8.60;41.60
45941;BME280;31858;46.008;8.978;2023-02-12T18:46:21;96116.25;;;8.36;42.10
45941;BME280;31858;46.008;8.978;2023-02-12T18:56:23;96135.78;;;8.23;42.88
45941;BME280;31858;46.008;8.978;2023-02-12T19:06:26;96132.22;;;8.10;43.23
45941;BME280;31858;46.008;8.978;2023-02-12T19:16:28;96136.94;;;7.88;44.14
45941;BME280;31858;46.008;8.978;2023-02-12T19:26:34;96144.28;;;7.82;44.95
45941;BME280;31858;46.008;8.978;2023-02-12T19:36:36;96164.44;;;7.48;46.63
45941;BME280;31858;46.008;8.978;2023-02-12T19:46:39;96161.16;;;7.43;46.48
45941;BME280;31858;46.008;8.978;2023-02-12T19:56:41;96178.28;;;7.19;47.15
45941;BME280;31858;46.008;8.978;2023-02-12T20:06:45;96176.06;;;7.04;47.83
45941;BME280;31858;46.008;8.978;2023-02-12T20:16:48;96186.47;;;6.92;47.89
45941;BME280;31858;46.008;8.978;2023-02-12T20:26:52;96192.88;;;6.91;47.72
45941;BME280;31858;46.008;8.978;2023-02-12T20:36:54;96209.69;;;6.86;47.55
45941;BME280;31858;46.008;8.978;2023-02-12T20:46:57;96222.38;;;7.07;46.84
45941;BME280;31858;46.008;8.978;2023-02-12T20:56:58;96221.59;;;7.06;47.33
45941;BME280;31858;46.008;8.978;2023-02-12T21:07:06;96227.97;;;6.66;48.56
45941;BME280;31858;46.008;8.978;2023-02-12T21:17:08;96234.16;;;6.52;49.19
45941;BME280;31858;46.008;8.978;2023-02-12T21:27:11;96234.44;;;6.42;49.61
45941;BME280;31858;46.008;8.978;2023-02-12T21:37:12;96242.75;;;6.27;50.59
45941;BME280;31858;46.008;8.978;2023-02-12T21:47:15;96247.25;;;6.27;50.64
45941;BME280;31858;46.008;8.978;2023-02-12T21:57:17;96255.97;;;6.05;50.11
45941;BME280;31858;46.008;8.978;2023-02-12T22:07:22;96259.81;;;6.21;49.12
45941;BME280;31858;46.008;8.978;2023-02-12T22:17:23;96264.41;;;6.29;48.36
45941;BME280;31858;46.008;8.978;2023-02-12T22:27:29;96255.50;;;6.25;49.09
45941;BME280;31858;46.008;8.978;2023-02-12T22:37:30;96265.19;;;6.07;49.53
45941;BME280;31858;46.008;8.978;2023-02-12T22:47:33;96268.53;;;5.85;50.22
45941;BME280;31858;46.008;8.978;2023-02-12T22:57:35;96282.06;;;5.98;50.70
45941;BME280;31858;46.008;8.978;2023-02-12T23:07:38;96295.59;;;5.96;50.71
45941;BME280;31858;46.008;8.978;2023-02-12T23:17:39;96298.16;;;5.74;52.13
45941;BME280;31858;46.008;8.978;2023-02-12T23:27:42;96312.28;;;5.69;51.80
45941;BME280;31858;46.008;8.978;2023-02-12T23:37:44;96311.41;;;5.60;51.85
45941;BME280;31858;46.008;8.978;2023-02-12T23:47:47;96309.53;;;5.61;51.81
45941;BME280;31858;46.008;8.978;2023-02-12T23:57:48;96315.03;;;5.50;52.57
